Anton Chico, NM

12:08 AM MDT on August 31, 2016 (GMT -0600)
Bobcat Hill | | Change Station

Elev 5886 ft 34.93 °N, 105.18 °W | Updated 8 minutes ago

Overcast
Overcast
59.6 °F
Feels Like 59.6 °F
N
0.0
Wind Variable Wind from North
Gusts 1.0 mph

Today
High -- | Low -- °F
--% Chance of Precip.
Yesterday
High -- | Low -- °F
Precip. -- in
Pressure 30.20 in
Visibility 10.0 miles
Clouds Overcast 200 ft
Dew Point 58 °F
Humidity 96%
Rainfall 0.00 in
Snow Depth Not available.
6:32 AM 7:27 PM
Waning Crescent, 1% visible
METAR KCQC 310553Z AUTO 10008KT 10SM OVC002 13/12 A3042 RMK AO2 SLP225 T01330122 10178 20133 50002
Pressure 30.20 in
Visibility 10.0 miles
Clouds Overcast 200 ft
Dew Point 58 °F
Humidity 96%
Rainfall 0.00 in
Snow Depth Not available.
6:32 AM 7:27 PM
Waning Crescent, 1% visible
METAR KCQC 310553Z AUTO 10008KT 10SM OVC002 13/12 A3042 RMK AO2 SLP225 T01330122 10178 20133 50002

10-Day Weather Forecast

Almanac

Astronomy

Aug. 31, 2016 Rise Set
Actual Time
Civil Twilight
Nautical Twilight
Astronomical Twilight
Moon
Length of Visible Light
Length of Day
Tomorrow will be .
, % of the Moon is Illuminated

Today's Extremes

State Highs State Lows

Community

WunderPhotos

Upload Photos

1,936,040 photos uploaded!

WunderBlog® & News

Nearby

Air Quality

  Air Quality AQ Index Pollutant
Not available.

Snow Depth

Station Depth Elevation

Earthquake Activity

City Distance Mag. Time & Date
Minimum magnitude displayed is 2.5.

Coastal Water Temperatures

Place Temperature

Stations

Nearby Weather Stations

Station Location Temp. Windchill Dew Point Humidity Wind Precip. Elev Updated Type
                   

Watches & Warnings

There are currently no watches in effect.